Airfield :
LOGIN :

Register | Disclaimer

   EN    FR    IT 

 










Legend :    VFR   Marginal VFR   IFR   Intensive IFR   Very Intensive IFR
Visi :
Ceiling :
>= 8 km
>= 3000ft
5 to 8 km
1000 to 3000 ft
1500m to 5 km
500 to 1000 ft
800 to 1500m
200 to 500 ft
< 800m
< 200 ft
Symbols :   Thunderstorms  Fog  Heavy snow  Heavy precipitations  Wind > 20 kt
SIGMETs :     Misc.  Thunderstorms  Icing  Turbulence  Mountain Waves  Volcanic Ashes







- Airport Elevation : 461 ft
- IATA code : WIE


ETOU - Wiesbaden Army

CURRENT METAR :
  • 230458Z AUTO 28003KT 9999 BKN025 04/00 A3026 RMK AO2 SLP253 T00350001

EXPIRED METARs :
  • 230433Z AUTO 00000KT 9999 BKN025 03/00 A3025 RMK AO2 BKN V SCT
  • 230358Z AUTO 00000KT 9999 BKN026 02/M01 A3024 RMK AO2 SLP247 T00201009
  • 230343Z AUTO 00000KT 9999 BKN027 02/M01 A3024 RMK AO2 BKN V FEW
  • 230258Z AUTO 00000KT 9999 CLR 03/M01 A3024 RMK AO2 SLP246 T00291009 55002

TAF AMD TAF ETOU
Valid from the 22 at 09:00 until the 23 at 09:00 UTC


220918Z 2209/2309 28012KT 9999 BKN020 620409 621305 QNH3024INS
BECMG 2209/2210 33012KT 9999 SCT020 BKN040 610409 611305 QNH3023INS
BECMG 2217/2218 33012KT 9999 SCT040 QNH3023INS TX12/2212Z TN05/2302Z LAST NO AMDS AFT 2209 NEXT 2403
No reported NOTAMs for that airfield.



MET'MAP, your aeronautical weather chart ! - Copyright ORBIFLY December 2007 - Disclaimer

ORBIFLY MET'MAP TEAM :

Programming & Development : Alexandra Zaïnal
Concept & Development : Baudouin d'Aumeries
Co-Development & Prog : Marc-Olivier Méhu
Technical & hardware support : Manuel Goepfert

Contact : metmap@orbifly.com




SOURCES & CREDITS :

   NOAA